createdAt,value
2023-03-02T00:00:38.526Z,-0.96
2023-03-02T00:01:52.062Z,-1.06
2023-03-02T00:03:00.433Z,-1.24
2023-03-02T00:04:18.973Z,-1.24
2023-03-02T00:05:26.014Z,-1.25
2023-03-02T00:06:37.558Z,-1.31
2023-03-02T00:07:45.777Z,-1.28
2023-03-02T00:09:06.505Z,-1.31
2023-03-02T00:10:16.526Z,-1.35
2023-03-02T00:15:04.184Z,-1.39
2023-03-02T00:16:48.273Z,-1.41
2023-03-02T00:17:53.302Z,-1.24
2023-03-02T00:18:58.325Z,-1.24
2023-03-02T00:20:10.612Z,-1.18
2023-03-02T00:21:20.965Z,-1.07
2023-03-02T00:23:48.804Z,-1.00
2023-03-02T00:24:56.961Z,-1.27
2023-03-02T00:26:02.930Z,-1.39
2023-03-02T00:27:22.270Z,-1.49
2023-03-02T00:28:29.076Z,-1.40
2023-03-02T00:29:36.917Z,-1.41
2023-03-02T00:30:42.970Z,-1.39
2023-03-02T00:31:48.595Z,-1.47
2023-03-02T00:32:55.649Z,-1.41
2023-03-02T00:34:09.997Z,-1.44
2023-03-02T00:35:14.980Z,-1.40
2023-03-02T00:36:25.026Z,-1.40
2023-03-02T00:37:40.451Z,-1.34
2023-03-02T00:38:48.755Z,-1.42
2023-03-02T00:39:58.084Z,-1.27
2023-03-02T00:41:04.882Z,-1.43
2023-03-02T00:42:16.805Z,-1.27
2023-03-02T00:43:35.132Z,-1.22
2023-03-02T00:44:39.588Z,-1.23
2023-03-02T00:45:45.978Z,-1.20
2023-03-02T00:46:57.730Z,-1.15
2023-03-02T00:56:53.285Z,-1.32
2023-03-02T00:58:01.299Z,-1.16
2023-03-02T00:59:38.154Z,-1.11
2023-03-02T01:01:05.386Z,-1.17
2023-03-02T01:02:17.753Z,-1.31
2023-03-02T01:03:25.039Z,-1.42
2023-03-02T01:04:40.405Z,-1.26
2023-03-02T01:05:47.022Z,-1.28
2023-03-02T01:07:01.845Z,-1.36
2023-03-02T01:08:12.675Z,-1.36
2023-03-02T01:09:17.319Z,-1.43
2023-03-02T01:10:39.358Z,-1.27
2023-03-02T01:11:48.655Z,-1.31
2023-03-02T01:12:55.167Z,-1.38
2023-03-02T01:14:05.157Z,-1.37
2023-03-02T01:15:20.527Z,-1.36
2023-03-02T01:16:26.352Z,-1.34
2023-03-02T01:17:32.907Z,-1.48
2023-03-02T01:18:39.531Z,-1.45
2023-03-02T01:19:45.305Z,-1.42
2023-03-02T01:20:53.987Z,-1.47
2023-03-02T01:22:02.140Z,-1.42
2023-03-02T01:23:15.222Z,-1.42
2023-03-02T01:24:21.852Z,-1.30
2023-03-02T01:25:30.840Z,-1.29
2023-03-02T01:26:38.795Z,-1.38
2023-03-02T01:27:53.812Z,-1.58
2023-03-02T01:29:00.172Z,-1.39
2023-03-02T01:30:07.345Z,-1.49
2023-03-02T01:31:15.143Z,-1.57
2023-03-02T01:32:21.575Z,-1.50
2023-03-02T01:33:40.979Z,-1.61
2023-03-02T01:34:48.994Z,-1.55
2023-03-02T01:36:02.054Z,-1.44
2023-03-02T01:37:14.519Z,-1.47
2023-03-02T01:38:59.789Z,-1.46
2023-03-02T01:40:11.919Z,-1.42
2023-03-02T01:41:27.978Z,-1.63
2023-03-02T01:42:49.017Z,-1.53
2023-03-02T01:44:08.513Z,-1.46
2023-03-02T01:45:53.210Z,-1.39
2023-03-02T01:47:28.324Z,-1.62
2023-03-02T01:48:49.290Z,-1.69
2023-03-02T01:50:27.335Z,-1.78
2023-03-02T01:51:47.579Z,-1.62
2023-03-02T01:53:03.116Z,-1.68
2023-03-02T01:54:23.491Z,-1.61
2023-03-02T01:55:40.156Z,-1.62
2023-03-02T01:56:49.252Z,-1.55
2023-03-02T01:57:59.968Z,-1.66
2023-03-02T01:59:13.551Z,-1.66
2023-03-02T02:00:25.317Z,-1.63
2023-03-02T02:02:04.451Z,-1.69
2023-03-02T02:03:21.532Z,-1.63
2023-03-02T02:04:30.064Z,-1.58
2023-03-02T02:05:47.953Z,-1.64
2023-03-02T02:07:17.778Z,-1.71
2023-03-02T02:09:45.251Z,-1.93
2023-03-02T02:10:50.531Z,-1.99
2023-03-02T02:11:55.953Z,-1.98
2023-03-02T02:13:00.301Z,-2.12
2023-03-02T02:14:05.773Z,-2.04
2023-03-02T02:15:14.968Z,-1.90
2023-03-02T02:16:22.196Z,-2.08
2023-03-02T02:17:32.488Z,-1.90
2023-03-02T02:18:45.441Z,-1.97
2023-03-02T02:20:29.839Z,-1.98
2023-03-02T02:21:44.076Z,-1.95
2023-03-02T02:23:29.432Z,-1.94
2023-03-02T02:25:13.563Z,-1.96
2023-03-02T02:26:26.109Z,-1.91
2023-03-02T02:27:37.427Z,-1.99
2023-03-02T02:28:48.480Z,-1.88
2023-03-02T02:30:01.494Z,-1.85
2023-03-02T02:31:38.586Z,-1.95
2023-03-02T02:36:36.980Z,-1.93
2023-03-02T02:38:14.627Z,-1.87
2023-03-02T02:39:34.823Z,-1.86
2023-03-02T02:40:57.127Z,-1.99
2023-03-02T02:42:15.749Z,-1.95
2023-03-02T02:43:26.025Z,-2.04
2023-03-02T02:44:33.503Z,-2.01
2023-03-02T02:45:39.886Z,-1.87
2023-03-02T02:46:53.589Z,-2.09
2023-03-02T02:48:02.530Z,-2.05
2023-03-02T02:49:31.510Z,-2.10
2023-03-02T02:50:39.248Z,-2.09
2023-03-02T02:51:47.559Z,-2.06
2023-03-02T02:52:58.974Z,-2.10
2023-03-02T02:54:07.696Z,-2.00
2023-03-02T02:55:22.111Z,-1.99
2023-03-02T02:56:37.569Z,-1.99
2023-03-02T03:01:43.400Z,-1.89
2023-03-02T03:02:59.798Z,-2.07
2023-03-02T03:04:07.520Z,-1.83
2023-03-02T03:05:29.672Z,-1.86
2023-03-02T03:06:43.270Z,-1.95
2023-03-02T03:07:53.992Z,-1.98
2023-03-02T03:09:18.704Z,-1.80
2023-03-02T03:10:40.745Z,-1.83
2023-03-02T03:11:54.030Z,-1.93
2023-03-02T03:13:04.157Z,-1.96
2023-03-02T03:14:19.252Z,-2.06
2023-03-02T03:15:27.015Z,-2.06
2023-03-02T03:16:34.104Z,-2.02
2023-03-02T03:17:42.541Z,-2.00
2023-03-02T03:18:58.669Z,-2.03
2023-03-02T03:20:13.271Z,-2.06
2023-03-02T03:21:22.662Z,-2.06
2023-03-02T03:22:31.681Z,-2.17
2023-03-02T03:23:40.792Z,-2.09
2023-03-02T03:24:50.280Z,-2.30
2023-03-02T03:26:04.763Z,-2.36
2023-03-02T03:27:16.892Z,-2.30
2023-03-02T03:28:26.812Z,-2.23
2023-03-02T03:29:35.716Z,-2.22
2023-03-02T03:30:42.390Z,-2.25
2023-03-02T03:31:53.394Z,-2.23
2023-03-02T03:33:03.858Z,-2.18
2023-03-02T03:34:14.713Z,-2.14
2023-03-02T03:35:19.739Z,-2.25
2023-03-02T03:36:25.888Z,-2.40
2023-03-02T03:38:01.046Z,-2.23
2023-03-02T03:39:13.186Z,-2.36
2023-03-02T03:41:53.228Z,-2.23
2023-03-02T03:43:16.017Z,-2.20
2023-03-02T03:44:32.392Z,-2.29
2023-03-02T03:45:40.830Z,-2.29
2023-03-02T03:46:52.044Z,-2.25
2023-03-02T03:48:03.626Z,-2.27
2023-03-02T03:49:08.858Z,-2.41
2023-03-02T03:50:20.432Z,-2.36
2023-03-02T03:51:34.662Z,-2.26
2023-03-02T03:52:48.620Z,-2.44
2023-03-02T03:54:46.616Z,-2.28
2023-03-02T03:55:55.039Z,-2.35
2023-03-02T03:56:59.650Z,-2.38
2023-03-02T03:58:08.924Z,-2.48
2023-03-02T03:59:27.973Z,-2.46
2023-03-02T04:00:40.070Z,-2.39
2023-03-02T04:01:58.597Z,-2.42
2023-03-02T04:03:10.982Z,-2.39
2023-03-02T04:04:21.336Z,-2.38
2023-03-02T04:05:31.693Z,-2.38
2023-03-02T04:06:38.425Z,-2.28
2023-03-02T04:07:47.292Z,-2.31
2023-03-02T04:08:58.353Z,-2.37
2023-03-02T04:10:09.410Z,-2.41
2023-03-02T04:11:26.396Z,-2.22
2023-03-02T04:12:39.905Z,-2.32
2023-03-02T04:13:53.601Z,-2.34
2023-03-02T04:14:59.748Z,-2.24
2023-03-02T04:16:03.819Z,-2.22
2023-03-02T04:17:11.295Z,-2.18
2023-03-02T04:18:22.039Z,-2.24
2023-03-02T04:19:27.191Z,-2.29
2023-03-02T04:20:35.283Z,-2.39
2023-03-02T04:21:48.197Z,-2.48
2023-03-02T04:23:03.333Z,-2.38
2023-03-02T04:24:13.076Z,-2.25
2023-03-02T04:25:26.124Z,-2.39
2023-03-02T04:26:38.598Z,-2.50
2023-03-02T04:29:18.733Z,-2.44
2023-03-02T04:30:29.209Z,-2.36
2023-03-02T04:31:36.371Z,-2.25
2023-03-02T04:32:52.168Z,-2.20
2023-03-02T04:33:59.482Z,-2.29
2023-03-02T04:35:14.405Z,-2.30
2023-03-02T04:36:29.493Z,-2.38
2023-03-02T04:38:21.587Z,-2.31
2023-03-02T04:40:09.252Z,-2.41
2023-03-02T04:41:46.020Z,-2.41
2023-03-02T04:42:51.573Z,-2.39
2023-03-02T04:43:59.986Z,-2.46
2023-03-02T04:45:04.944Z,-2.41
2023-03-02T04:46:16.704Z,-2.30
2023-03-02T04:47:24.434Z,-2.13
2023-03-02T04:48:41.204Z,-2.26
2023-03-02T04:49:56.313Z,-2.18
2023-03-02T04:51:00.371Z,-2.08
2023-03-02T04:52:12.629Z,-2.02
2023-03-02T04:53:17.759Z,-2.02
2023-03-02T04:54:28.743Z,-2.07
2023-03-02T04:55:32.048Z,-2.27
2023-03-02T04:56:42.586Z,-2.20
2023-03-02T04:57:50.201Z,-2.25
2023-03-02T04:58:58.877Z,-2.40
2023-03-02T05:00:05.630Z,-2.52
2023-03-02T05:01:13.678Z,-2.44
2023-03-02T05:02:18.796Z,-2.44
2023-03-02T05:03:28.892Z,-2.51
2023-03-02T05:04:32.242Z,-2.55
2023-03-02T05:05:47.951Z,-2.44
2023-03-02T05:06:54.598Z,-2.39
2023-03-02T05:08:00.873Z,-2.43
2023-03-02T05:09:07.413Z,-2.43
2023-03-02T05:10:15.359Z,-2.46
2023-03-02T05:11:27.362Z,-2.42
2023-03-02T05:12:31.869Z,-2.23
2023-03-02T05:13:41.201Z,-2.28
2023-03-02T05:14:49.155Z,-2.51
2023-03-02T05:15:58.544Z,-2.41
2023-03-02T05:17:09.699Z,-2.25
2023-03-02T05:18:19.632Z,-2.34
2023-03-02T05:19:24.790Z,-2.41
2023-03-02T05:20:33.424Z,-2.27
2023-03-02T05:21:41.162Z,-2.34
2023-03-02T05:22:51.962Z,-2.22
2023-03-02T05:24:18.379Z,-2.37
2023-03-02T05:25:42.424Z,-2.42
2023-03-02T05:26:57.901Z,-2.34
2023-03-02T05:28:12.207Z,-2.17
2023-03-02T05:29:29.132Z,-2.36
2023-03-02T05:30:52.621Z,-2.45
2023-03-02T05:31:57.598Z,-2.38
2023-03-02T05:33:04.542Z,-2.32
2023-03-02T05:34:10.499Z,-2.33
2023-03-02T05:35:15.186Z,-2.27
2023-03-02T05:36:22.854Z,-2.27
2023-03-02T05:37:30.623Z,-2.28
2023-03-02T05:38:40.227Z,-2.14
2023-03-02T05:39:55.025Z,-2.21
2023-03-02T05:41:04.075Z,-2.11
2023-03-02T05:42:12.484Z,-2.18
2023-03-02T05:43:24.775Z,-2.26
2023-03-02T05:44:33.296Z,-2.17
2023-03-02T05:45:41.082Z,-2.05
2023-03-02T05:46:54.044Z,-1.98
2023-03-02T05:47:58.724Z,-2.13
2023-03-02T05:49:06.977Z,-2.13
2023-03-02T05:50:12.908Z,-1.91
2023-03-02T05:51:17.452Z,-2.12
2023-03-02T05:52:23.886Z,-2.09
2023-03-02T05:53:31.361Z,-2.10
2023-03-02T05:54:37.631Z,-2.14
2023-03-02T05:55:42.785Z,-1.92
2023-03-02T05:56:50.392Z,-1.89
2023-03-02T05:57:54.840Z,-2.01
2023-03-02T05:59:06.308Z,-2.01
2023-03-02T06:00:15.027Z,-1.99
2023-03-02T06:01:18.898Z,-2.13
2023-03-02T06:02:24.402Z,-1.95
2023-03-02T06:03:33.921Z,-1.79
2023-03-02T06:04:43.336Z,-1.79
2023-03-02T06:05:51.404Z,-1.80
2023-03-02T06:06:59.008Z,-2.13
2023-03-02T06:08:03.548Z,-1.84
2023-03-02T06:09:08.619Z,-1.94
2023-03-02T06:10:16.133Z,-1.84
2023-03-02T06:11:18.865Z,-1.76
2023-03-02T06:12:24.149Z,-1.94
2023-03-02T06:13:32.324Z,-1.89
2023-03-02T06:14:36.185Z,-1.69
2023-03-02T06:15:41.138Z,-1.73
2023-03-02T06:16:44.528Z,-1.58
2023-03-02T06:17:58.400Z,-1.54
2023-03-02T06:19:03.547Z,-1.36
2023-03-02T06:20:11.588Z,-1.38
2023-03-02T06:21:15.033Z,-1.38
2023-03-02T06:22:20.424Z,-1.22
2023-03-02T06:23:26.456Z,-1.09
2023-03-02T06:24:29.457Z,-1.00
2023-03-02T06:25:32.410Z,-1.28
2023-03-02T06:26:36.528Z,-1.33
2023-03-02T06:27:40.427Z,-1.36
2023-03-02T06:28:52.268Z,-1.15
2023-03-02T06:30:01.906Z,-1.15
2023-03-02T06:31:04.555Z,-1.03
2023-03-02T06:32:07.588Z,-1.16
2023-03-02T06:33:11.903Z,-0.79
2023-03-02T06:34:15.629Z,-0.86
2023-03-02T06:35:18.772Z,-0.79
2023-03-02T06:36:21.875Z,-0.68
2023-03-02T06:37:25.709Z,-0.57
2023-03-02T06:38:30.078Z,-0.47
2023-03-02T06:39:34.675Z,-0.62
2023-03-02T06:40:38.583Z,-0.41
2023-03-02T06:41:47.289Z,-0.34
2023-03-02T06:42:50.179Z,-0.44
2023-03-02T06:43:54.770Z,-0.31
2023-03-02T06:44:57.154Z,-0.42
2023-03-02T06:46:00.896Z,-0.32
2023-03-02T06:47:03.195Z,-0.28
2023-03-02T06:48:09.078Z,-0.29
2023-03-02T06:49:14.188Z,-0.46
2023-03-02T06:50:16.557Z,-0.73
2023-03-02T06:51:23.935Z,-0.32
2023-03-02T06:52:28.779Z,-0.21
2023-03-02T06:53:31.469Z,-0.36
2023-03-02T06:54:35.184Z,-0.35
2023-03-02T06:55:39.981Z,-0.32
2023-03-02T06:56:46.056Z,-0.13
2023-03-02T06:57:49.582Z,-0.04
2023-03-02T06:58:54.772Z,-0.20
2023-03-02T07:00:26.100Z,-0.19
2023-03-02T07:01:38.480Z,0.03
2023-03-02T07:02:41.285Z,-0.14
2023-03-02T07:03:43.474Z,-0.04
2023-03-02T07:04:46.739Z,0.21
2023-03-02T07:05:52.474Z,0.25
2023-03-02T07:06:56.082Z,0.44
2023-03-02T07:08:01.921Z,0.52
2023-03-02T07:09:04.591Z,0.45
2023-03-02T07:10:10.556Z,0.45
2023-03-02T07:11:15.614Z,0.45
2023-03-02T07:12:17.545Z,0.44
2023-03-02T07:13:19.736Z,0.26
2023-03-02T07:14:21.986Z,0.05
2023-03-02T07:15:25.641Z,-0.09
2023-03-02T07:16:28.021Z,-0.19
2023-03-02T07:17:30.226Z,-0.01
2023-03-02T07:18:32.999Z,-0.28
2023-03-02T07:19:36.170Z,0.01
2023-03-02T07:20:39.684Z,0.04
2023-03-02T07:21:42.375Z,0.04
2023-03-02T07:22:46.070Z,0.08
2023-03-02T07:23:49.948Z,-0.02
2023-03-02T07:24:52.182Z,-0.02
2023-03-02T07:25:54.461Z,-0.27
2023-03-02T07:27:00.976Z,-0.45
2023-03-02T07:28:05.666Z,-0.25
2023-03-02T07:29:09.461Z,-0.24
2023-03-02T07:30:12.667Z,-0.16
2023-03-02T07:31:17.226Z,-0.32
2023-03-02T07:32:20.603Z,-0.75
2023-03-02T07:33:25.294Z,-0.61
2023-03-02T07:34:29.005Z,-0.42
2023-03-02T07:35:32.408Z,-0.50
2023-03-02T07:36:36.628Z,-0.39
2023-03-02T07:37:43.303Z,-0.67
2023-03-02T07:38:46.296Z,-0.63
2023-03-02T07:39:52.329Z,-0.73
2023-03-02T07:40:55.889Z,-0.69
2023-03-02T07:42:04.592Z,-0.72
2023-03-02T07:43:08.989Z,-0.75
2023-03-02T07:44:14.009Z,-1.04
2023-03-02T07:45:22.413Z,-0.87
2023-03-02T07:46:25.549Z,-0.99
2023-03-02T07:47:29.716Z,-0.81
2023-03-02T07:48:33.926Z,-0.89
2023-03-02T07:49:39.774Z,-0.88
2023-03-02T07:50:42.659Z,-0.82
2023-03-02T07:51:48.468Z,-0.91
2023-03-02T07:52:54.191Z,-1.02
2023-03-02T07:53:57.729Z,-0.75
2023-03-02T07:54:59.930Z,-0.74
2023-03-02T07:56:08.464Z,-1.04
2023-03-02T07:57:18.671Z,-0.94
2023-03-02T07:58:24.858Z,-0.96
2023-03-02T07:59:28.778Z,-0.84
2023-03-02T08:00:31.651Z,-0.89
2023-03-02T08:01:35.184Z,-0.83
2023-03-02T08:02:39.968Z,-0.69
2023-03-02T08:03:47.547Z,-0.42
2023-03-02T08:04:50.385Z,-0.35
2023-03-02T08:05:53.533Z,-0.26
2023-03-02T08:06:56.849Z,-0.39
2023-03-02T08:08:00.200Z,-0.53
2023-03-02T08:09:04.367Z,-0.63
2023-03-02T08:10:07.381Z,-0.47
2023-03-02T08:11:16.678Z,-0.40
2023-03-02T08:12:21.289Z,-0.14
2023-03-02T08:13:23.876Z,-0.16
2023-03-02T08:14:26.093Z,-0.18
2023-03-02T08:15:28.410Z,-0.34
2023-03-02T08:16:31.196Z,-0.16
2023-03-02T08:17:33.286Z,-0.01
2023-03-02T08:18:37.492Z,0.17
2023-03-02T08:19:40.948Z,0.18
2023-03-02T08:20:43.136Z,-0.22
2023-03-02T08:21:46.470Z,-0.17
2023-03-02T08:22:49.423Z,-0.34
2023-03-02T08:23:53.118Z,-0.31
2023-03-02T08:24:55.117Z,-0.11
2023-03-02T08:26:00.148Z,0.14
2023-03-02T08:27:03.781Z,0.10
2023-03-02T08:28:07.326Z,-0.04
2023-03-02T08:29:10.049Z,0.03
2023-03-02T08:30:13.191Z,-0.02
2023-03-02T08:31:17.004Z,0.28
2023-03-02T08:33:46.382Z,0.22
2023-03-02T08:34:53.100Z,0.30
2023-03-02T08:36:03.229Z,0.22
2023-03-02T08:37:10.056Z,0.05
2023-03-02T08:38:13.961Z,0.19
2023-03-02T08:39:23.553Z,-0.05
2023-03-02T08:40:29.986Z,-0.10
2023-03-02T08:41:35.732Z,0.04
2023-03-02T08:42:38.682Z,0.02
2023-03-02T08:43:58.372Z,-0.10
2023-03-02T08:45:07.701Z,0.13
2023-03-02T08:46:17.780Z,0.46
2023-03-02T08:47:33.525Z,0.37
2023-03-02T08:48:36.476Z,0.57
2023-03-02T08:49:38.991Z,0.45
2023-03-02T08:50:41.792Z,0.63
2023-03-02T08:51:44.694Z,0.88
2023-03-02T08:52:47.883Z,0.39
2023-03-02T08:53:51.802Z,0.33
2023-03-02T08:54:53.938Z,0.39
2023-03-02T08:55:56.489Z,0.48
2023-03-02T08:56:58.465Z,0.66
2023-03-02T08:58:00.563Z,0.62
2023-03-02T08:59:06.317Z,0.35
2023-03-02T09:00:14.766Z,0.45
2023-03-02T09:01:20.488Z,0.45
2023-03-02T09:02:22.633Z,0.71
2023-03-02T09:03:25.096Z,0.75
2023-03-02T09:04:27.243Z,0.92
2023-03-02T09:05:29.590Z,0.82
2023-03-02T09:06:34.510Z,0.78
2023-03-02T09:07:37.414Z,0.65
2023-03-02T09:08:42.395Z,0.58
2023-03-02T09:09:44.647Z,0.68
2023-03-02T09:10:46.568Z,0.67
2023-03-02T09:11:48.647Z,0.62
2023-03-02T09:12:50.619Z,0.52
2023-03-02T09:13:53.207Z,0.31
2023-03-02T09:14:56.214Z,0.04
2023-03-02T09:16:02.037Z,0.31
2023-03-02T09:17:04.273Z,0.38
2023-03-02T09:18:06.394Z,0.45
2023-03-02T09:19:08.401Z,0.74
2023-03-02T09:20:11.250Z,0.15
2023-03-02T09:21:13.940Z,0.29
2023-03-02T09:22:16.007Z,0.33
2023-03-02T09:23:18.918Z,0.20
2023-03-02T09:24:21.055Z,0.12
2023-03-02T09:25:23.116Z,0.31
2023-03-02T09:26:26.975Z,0.37
2023-03-02T09:27:44.169Z,0.41
2023-03-02T09:29:00.992Z,0.08
2023-03-02T09:30:03.144Z,-0.02
2023-03-02T09:31:08.321Z,0.18
2023-03-02T09:32:11.249Z,0.31
2023-03-02T09:33:13.459Z,0.51
2023-03-02T09:34:16.870Z,0.62
2023-03-02T09:35:21.864Z,0.77
2023-03-02T09:36:31.594Z,0.92
2023-03-02T09:37:35.534Z,0.89
2023-03-02T09:38:38.500Z,0.57
2023-03-02T09:39:40.702Z,0.34
2023-03-02T09:41:02.490Z,0.45
2023-03-02T09:42:38.077Z,0.55
2023-03-02T09:44:16.495Z,0.63
2023-03-02T09:45:39.410Z,0.57
2023-03-02T09:46:55.255Z,0.82
2023-03-02T09:48:13.477Z,0.81
2023-03-02T09:49:29.325Z,0.99
2023-03-02T09:50:37.408Z,1.11
2023-03-02T09:51:42.382Z,0.65
2023-03-02T09:52:56.493Z,0.82
2023-03-02T09:54:11.303Z,0.85
2023-03-02T09:55:23.850Z,0.98
2023-03-02T09:56:29.689Z,1.12
2023-03-02T09:57:36.347Z,0.97
2023-03-02T09:58:40.235Z,0.94
2023-03-02T09:59:45.900Z,1.38
2023-03-02T10:00:48.151Z,1.31
2023-03-02T10:02:02.587Z,1.56
2023-03-02T10:03:17.689Z,0.92
2023-03-02T10:04:25.696Z,0.92
2023-03-02T10:05:34.330Z,0.79
2023-03-02T10:06:36.315Z,0.56
2023-03-02T10:07:39.492Z,0.91
2023-03-02T10:08:43.514Z,0.69
2023-03-02T10:09:46.823Z,0.92
2023-03-02T10:11:00.079Z,0.97
2023-03-02T10:12:19.908Z,1.06
2023-03-02T10:13:40.869Z,0.93
2023-03-02T10:14:53.869Z,0.82
2023-03-02T10:16:14.226Z,0.83
2023-03-02T10:17:42.505Z,0.96
2023-03-02T10:19:05.207Z,1.25
2023-03-02T10:20:24.366Z,1.15
2023-03-02T10:21:49.793Z,1.35
2023-03-02T10:23:09.075Z,1.57
2023-03-02T10:24:36.746Z,1.41
2023-03-02T10:26:09.607Z,1.56
2023-03-02T10:27:26.455Z,1.23
2023-03-02T10:28:37.216Z,1.49
2023-03-02T10:29:39.440Z,1.85
2023-03-02T10:30:42.092Z,1.49
2023-03-02T10:31:46.178Z,1.53
2023-03-02T10:32:53.163Z,1.72
2023-03-02T10:33:55.849Z,1.56
2023-03-02T10:35:02.316Z,1.82
2023-03-02T10:36:14.497Z,1.77
2023-03-02T10:37:25.256Z,1.66
2023-03-02T10:38:29.287Z,1.81
2023-03-02T10:39:31.886Z,1.83
2023-03-02T10:40:39.845Z,1.94
2023-03-02T10:41:49.796Z,1.95
2023-03-02T10:42:52.347Z,2.03
2023-03-02T10:44:02.665Z,1.94
2023-03-02T10:45:25.834Z,1.78
2023-03-02T10:46:41.271Z,1.62
2023-03-02T10:47:43.334Z,1.41
2023-03-02T10:48:55.565Z,1.34
2023-03-02T10:49:58.422Z,1.53
2023-03-02T10:51:00.781Z,1.47
2023-03-02T10:52:06.955Z,1.63
2023-03-02T10:53:17.867Z,1.36
2023-03-02T10:54:19.802Z,1.24
2023-03-02T10:55:22.665Z,1.43
2023-03-02T10:56:24.869Z,1.41
2023-03-02T10:57:38.244Z,1.54
2023-03-02T10:58:40.412Z,1.48
2023-03-02T10:59:45.815Z,1.54
2023-03-02T11:01:18.873Z,1.16
2023-03-02T11:02:24.141Z,1.50
2023-03-02T11:04:16.639Z,1.35
2023-03-02T11:05:30.314Z,1.11
2023-03-02T11:06:33.885Z,1.34
2023-03-02T11:07:39.174Z,0.97
2023-03-02T11:08:50.665Z,1.27
2023-03-02T11:10:24.320Z,1.29
2023-03-02T11:11:28.234Z,1.29
2023-03-02T11:12:57.488Z,0.83
2023-03-02T11:15:07.529Z,1.19
2023-03-02T11:16:26.919Z,0.96
2023-03-02T11:17:42.231Z,1.04
2023-03-02T11:18:54.291Z,1.19
2023-03-02T11:20:02.996Z,1.29
2023-03-02T11:21:18.647Z,1.35
2023-03-02T11:22:52.899Z,1.17
2023-03-02T11:24:31.000Z,1.16
2023-03-02T11:25:42.728Z,1.14
2023-03-02T11:27:15.155Z,1.31
2023-03-02T11:28:44.396Z,1.47
2023-03-02T11:30:01.377Z,0.90
2023-03-02T11:31:13.365Z,1.05
2023-03-02T11:32:31.558Z,1.03
2023-03-02T11:33:44.264Z,1.18
2023-03-02T11:34:54.586Z,0.98
2023-03-02T11:36:03.196Z,1.08
2023-03-02T11:37:46.900Z,1.11
2023-03-02T11:38:53.739Z,0.89
2023-03-02T11:39:58.570Z,1.04
2023-03-02T11:41:08.084Z,0.97
2023-03-02T11:42:44.967Z,1.05
2023-03-02T11:43:46.965Z,1.04
2023-03-02T11:44:50.026Z,1.28
2023-03-02T11:46:17.042Z,1.14
2023-03-02T11:47:25.262Z,1.31
2023-03-02T11:48:43.081Z,1.36
2023-03-02T11:49:55.992Z,1.52
2023-03-02T11:51:05.118Z,1.47
2023-03-02T11:52:22.225Z,1.34
2023-03-02T11:53:32.453Z,1.40
2023-03-02T12:00:53.963Z,1.25
2023-03-02T12:02:04.943Z,1.13
2023-03-02T12:03:38.369Z,1.24
2023-03-02T12:17:19.738Z,1.28
2023-03-02T12:20:14.483Z,1.36
2023-03-02T12:25:06.815Z,0.68
2023-03-02T12:26:52.766Z,0.83
2023-03-02T12:28:41.679Z,0.93
2023-03-02T12:31:21.790Z,0.72
2023-03-02T12:32:39.227Z,0.70
2023-03-02T12:33:53.637Z,0.78
2023-03-02T12:35:14.712Z,0.76
2023-03-02T12:36:55.150Z,0.92
2023-03-02T12:38:46.553Z,0.72
2023-03-02T12:40:30.965Z,0.63
2023-03-02T12:42:05.190Z,0.76
2023-03-02T12:43:30.400Z,0.68
2023-03-02T12:44:55.123Z,0.74
2023-03-02T12:46:09.780Z,0.64
2023-03-02T12:47:30.091Z,0.78
2023-03-02T12:48:56.495Z,0.55
2023-03-02T12:50:09.016Z,0.52
2023-03-02T12:51:26.880Z,0.46
2023-03-02T12:53:00.261Z,0.38
2023-03-02T12:54:20.649Z,0.33
2023-03-02T12:55:35.565Z,0.42
2023-03-02T12:56:42.882Z,0.29
2023-03-02T12:57:50.846Z,0.00
2023-03-02T12:58:58.692Z,-0.02
2023-03-02T13:00:04.123Z,0.09
2023-03-02T13:01:07.118Z,0.11
2023-03-02T13:02:31.033Z,0.19
2023-03-02T13:03:33.578Z,0.27
2023-03-02T13:04:37.450Z,0.26
2023-03-02T13:05:41.780Z,0.38
2023-03-02T13:06:46.396Z,0.40
2023-03-02T13:08:24.902Z,0.02
2023-03-02T13:09:30.506Z,0.19
2023-03-02T13:10:36.204Z,0.01
2023-03-02T13:11:44.381Z,-0.05
2023-03-02T13:12:49.040Z,0.11
2023-03-02T13:14:00.897Z,0.02
2023-03-02T13:15:20.371Z,0.06
2023-03-02T13:16:32.151Z,0.17
2023-03-02T13:17:46.689Z,0.12
2023-03-02T13:19:01.185Z,0.01
2023-03-02T13:20:08.894Z,0.07
2023-03-02T13:21:16.353Z,-0.03
2023-03-02T13:22:25.130Z,0.09
2023-03-02T13:23:31.337Z,-0.21
2023-03-02T13:24:46.724Z,0.01
2023-03-02T13:26:02.752Z,-0.05
2023-03-02T13:27:15.165Z,-0.02
2023-03-02T13:28:35.433Z,-0.05
2023-03-02T13:29:41.655Z,-0.02
2023-03-02T13:30:48.772Z,-0.07
2023-03-02T13:31:53.087Z,-0.09
2023-03-02T13:33:19.309Z,-0.30
2023-03-02T13:34:29.514Z,-0.31
2023-03-02T13:35:42.060Z,-0.31
2023-03-02T13:36:53.947Z,-0.33
2023-03-02T13:38:05.178Z,-0.16
2023-03-02T13:39:36.088Z,-0.15
2023-03-02T13:40:48.902Z,-0.18
2023-03-02T13:42:21.960Z,-0.11
2023-03-02T13:43:44.575Z,-0.22
2023-03-02T13:44:56.893Z,-0.12
2023-03-02T13:46:06.287Z,-0.09
2023-03-02T13:47:26.373Z,-0.14
2023-03-02T13:48:34.324Z,-0.22
2023-03-02T13:50:09.401Z,-0.10
2023-03-02T13:51:22.702Z,0.01
2023-03-02T13:52:30.678Z,-0.11
2023-03-02T13:53:38.887Z,-0.07
2023-03-02T13:54:48.472Z,0.00
2023-03-02T13:55:55.511Z,-0.05
2023-03-02T13:57:05.678Z,0.11
2023-03-02T13:58:19.362Z,0.16
2023-03-02T13:59:27.920Z,0.09
2023-03-02T14:00:42.292Z,0.24
2023-03-02T14:02:23.085Z,0.27
2023-03-02T14:03:37.462Z,0.30
2023-03-02T14:04:51.831Z,0.27
2023-03-02T14:06:01.359Z,0.08
2023-03-02T14:07:04.367Z,0.26
2023-03-02T14:08:10.306Z,0.14
2023-03-02T14:09:18.875Z,0.05
2023-03-02T14:10:22.523Z,0.06
2023-03-02T14:11:36.309Z,0.06
2023-03-02T14:12:41.513Z,0.10
2023-03-02T14:13:52.063Z,0.13
2023-03-02T14:15:01.693Z,0.04
2023-03-02T14:17:01.324Z,0.09
2023-03-02T14:19:34.817Z,0.01
2023-03-02T14:20:38.654Z,0.04
2023-03-02T14:21:46.829Z,-0.03
2023-03-02T14:22:50.810Z,-0.05
2023-03-02T14:23:54.379Z,0.00
2023-03-02T14:25:08.505Z,-0.05
2023-03-02T14:26:39.917Z,-0.02
2023-03-02T14:27:44.740Z,-0.08
2023-03-02T14:28:53.645Z,0.01
2023-03-02T14:30:28.463Z,-0.08
2023-03-02T14:31:32.159Z,-0.11
2023-03-02T14:32:37.752Z,0.08
2023-03-02T14:33:42.669Z,0.03
2023-03-02T14:34:53.665Z,-0.07
2023-03-02T14:36:00.056Z,0.00
2023-03-02T14:37:07.782Z,-0.02
2023-03-02T14:38:15.200Z,-0.07
2023-03-02T14:39:38.961Z,-0.02
2023-03-02T14:40:41.821Z,-0.15
2023-03-02T14:41:53.366Z,-0.05
2023-03-02T14:42:56.190Z,0.05
2023-03-02T14:44:01.150Z,-0.03
2023-03-02T14:45:03.520Z,-0.03
2023-03-02T14:46:06.276Z,-0.06
2023-03-02T14:47:10.262Z,-0.07
2023-03-02T14:48:14.318Z,0.03
2023-03-02T14:49:17.436Z,0.01
2023-03-02T14:50:19.655Z,0.12
2023-03-02T14:51:29.000Z,0.10
2023-03-02T14:52:33.726Z,0.09
2023-03-02T14:53:36.329Z,0.19
2023-03-02T14:54:45.974Z,0.09
2023-03-02T14:55:50.543Z,0.04
2023-03-02T14:56:53.115Z,0.08
2023-03-02T14:58:00.475Z,0.08
2023-03-02T14:59:07.104Z,0.10
2023-03-02T15:00:14.484Z,0.08
2023-03-02T15:01:19.154Z,0.19
2023-03-02T15:02:26.204Z,0.24
2023-03-02T15:03:30.309Z,0.12
2023-03-02T15:04:34.492Z,0.02
2023-03-02T15:05:36.570Z,0.05
2023-03-02T15:06:40.996Z,0.09
2023-03-02T15:07:44.030Z,0.08
2023-03-02T15:08:46.202Z,-0.06
2023-03-02T15:09:48.809Z,0.05
2023-03-02T15:10:51.202Z,-0.03
2023-03-02T15:11:53.315Z,0.03
2023-03-02T15:12:55.462Z,0.11
2023-03-02T15:13:59.677Z,0.18
2023-03-02T15:15:01.811Z,0.22
2023-03-02T15:16:06.653Z,0.12
2023-03-02T15:17:09.852Z,0.18
2023-03-02T15:18:17.538Z,0.04
2023-03-02T15:19:20.835Z,-0.10
2023-03-02T15:20:24.618Z,0.01
2023-03-02T15:21:54.027Z,-0.11
2023-03-02T15:22:58.654Z,0.06
2023-03-02T15:24:00.903Z,0.15
2023-03-02T15:25:06.193Z,0.00
2023-03-02T15:26:10.933Z,-0.01
2023-03-02T15:27:13.855Z,0.10
2023-03-02T15:28:17.619Z,0.09
2023-03-02T15:29:20.750Z,0.11
2023-03-02T15:30:25.150Z,0.11
2023-03-02T15:31:28.647Z,0.09
2023-03-02T15:32:31.190Z,0.01
2023-03-02T15:33:33.639Z,-0.01
2023-03-02T15:34:36.092Z,0.09
2023-03-02T15:35:40.321Z,0.12
2023-03-02T15:36:42.314Z,0.13
2023-03-02T15:37:44.986Z,0.14
2023-03-02T15:38:51.204Z,0.11
2023-03-02T15:39:55.991Z,0.06
2023-03-02T15:40:58.128Z,0.16
2023-03-02T15:42:01.390Z,0.13
2023-03-02T15:43:03.826Z,0.11
2023-03-02T15:44:06.265Z,-0.05
2023-03-02T15:45:09.393Z,-0.11
2023-03-02T15:46:12.199Z,0.00
2023-03-02T15:47:15.903Z,-0.13
2023-03-02T15:48:18.112Z,-0.01
2023-03-02T15:49:23.061Z,-0.10
2023-03-02T15:50:27.728Z,-0.01
2023-03-02T15:51:29.815Z,-0.12
2023-03-02T15:52:32.027Z,-0.03
2023-03-02T15:53:38.236Z,-0.08
2023-03-02T15:54:41.268Z,-0.01
2023-03-02T15:55:43.413Z,-0.02
2023-03-02T15:56:54.912Z,0.08
2023-03-02T15:57:59.013Z,0.04
2023-03-02T15:59:01.320Z,-0.02
2023-03-02T16:00:05.325Z,-0.12
2023-03-02T16:01:10.490Z,0.01
2023-03-02T16:02:13.496Z,0.02
2023-03-02T16:03:16.236Z,-0.01
2023-03-02T16:04:29.385Z,-0.27
2023-03-02T16:05:32.692Z,-0.04
2023-03-02T16:06:34.978Z,-0.02
2023-03-02T16:07:38.891Z,-0.13
2023-03-02T16:08:44.126Z,-0.10
2023-03-02T16:09:47.664Z,-0.05
2023-03-02T16:11:06.019Z,-0.06
2023-03-02T16:12:08.168Z,0.05